sensor_id;sensor_type;location;lat;lon;timestamp;P1;durP1;ratioP1;P2;durP2;ratioP2
69207;SDS011;56321;47.662;8.878;2022-10-04T00:00:48;7.50;;;2.90;;
69207;SDS011;56321;47.662;8.878;2022-10-04T00:03:21;7.50;;;2.70;;
69207;SDS011;56321;47.662;8.878;2022-10-04T00:05:53;8.77;;;2.83;;
69207;SDS011;56321;47.662;8.878;2022-10-04T00:11:16;7.53;;;2.70;;
69207;SDS011;56321;47.662;8.878;2022-10-04T00:13:45;7.90;;;2.63;;
69207;SDS011;56321;47.662;8.878;2022-10-04T00:16:29;7.65;;;2.60;;
69207;SDS011;56321;47.662;8.878;2022-10-04T00:19:01;8.13;;;2.92;;
69207;SDS011;56321;47.662;8.878;2022-10-04T00:24:26;8.40;;;2.90;;
69207;SDS011;56321;47.662;8.878;2022-10-04T00:34:49;6.93;;;2.80;;
69207;SDS011;56321;47.662;8.878;2022-10-04T00:37:19;8.48;;;3.20;;
69207;SDS011;56321;47.662;8.878;2022-10-04T00:39:54;7.32;;;2.65;;
69207;SDS011;56321;47.662;8.878;2022-10-04T00:44:53;8.38;;;2.80;;
69207;SDS011;56321;47.662;8.878;2022-10-04T00:47:29;7.27;;;2.80;;
69207;SDS011;56321;47.662;8.878;2022-10-04T00:53:01;8.38;;;2.72;;
69207;SDS011;56321;47.662;8.878;2022-10-04T00:57:55;7.23;;;3.00;;
69207;SDS011;56321;47.662;8.878;2022-10-04T01:00:24;7.78;;;2.67;;
69207;SDS011;56321;47.662;8.878;2022-10-04T01:05:40;9.25;;;3.03;;
69207;SDS011;56321;47.662;8.878;2022-10-04T01:10:49;7.45;;;2.88;;
69207;SDS011;56321;47.662;8.878;2022-10-04T01:13:19;7.30;;;2.50;;
69207;SDS011;56321;47.662;8.878;2022-10-04T01:15:55;7.37;;;2.70;;
69207;SDS011;56321;47.662;8.878;2022-10-04T01:20:51;7.33;;;3.07;;
69207;SDS011;56321;47.662;8.878;2022-10-04T01:23:30;7.30;;;3.10;;
69207;SDS011;56321;47.662;8.878;2022-10-04T01:26:29;7.95;;;2.60;;
69207;SDS011;56321;47.662;8.878;2022-10-04T01:31:27;7.68;;;2.85;;
69207;SDS011;56321;47.662;8.878;2022-10-04T01:33:53;7.20;;;2.67;;
69207;SDS011;56321;47.662;8.878;2022-10-04T01:36:19;7.60;;;2.78;;
69207;SDS011;56321;47.662;8.878;2022-10-04T01:38:46;7.25;;;2.97;;
69207;SDS011;56321;47.662;8.878;2022-10-04T01:41:11;7.43;;;2.60;;
69207;SDS011;56321;47.662;8.878;2022-10-04T01:43:42;8.45;;;2.78;;
69207;SDS011;56321;47.662;8.878;2022-10-04T01:46:22;7.97;;;2.60;;
69207;SDS011;56321;47.662;8.878;2022-10-04T01:48:53;9.43;;;2.70;;
69207;SDS011;56321;47.662;8.878;2022-10-04T01:56:31;7.57;;;2.80;;
69207;SDS011;56321;47.662;8.878;2022-10-04T01:59:05;8.95;;;3.10;;
69207;SDS011;56321;47.662;8.878;2022-10-04T02:01:38;7.65;;;2.90;;
69207;SDS011;56321;47.662;8.878;2022-10-04T02:04:15;7.80;;;2.65;;
69207;SDS011;56321;47.662;8.878;2022-10-04T02:06:45;8.70;;;3.03;;
69207;SDS011;56321;47.662;8.878;2022-10-04T02:09:17;8.05;;;2.88;;
69207;SDS011;56321;47.662;8.878;2022-10-04T02:11:46;7.63;;;3.10;;
69207;SDS011;56321;47.662;8.878;2022-10-04T02:14:17;8.32;;;2.83;;
69207;SDS011;56321;47.662;8.878;2022-10-04T02:16:46;10.85;;;3.30;;
69207;SDS011;56321;47.662;8.878;2022-10-04T02:19:13;8.00;;;2.70;;
69207;SDS011;56321;47.662;8.878;2022-10-04T02:21:39;8.00;;;3.05;;
69207;SDS011;56321;47.662;8.878;2022-10-04T02:24:06;7.50;;;2.97;;
69207;SDS011;56321;47.662;8.878;2022-10-04T02:26:33;7.78;;;2.70;;
69207;SDS011;56321;47.662;8.878;2022-10-04T02:28:58;8.37;;;2.73;;
69207;SDS011;56321;47.662;8.878;2022-10-04T02:31:24;7.10;;;2.80;;
69207;SDS011;56321;47.662;8.878;2022-10-04T02:34:09;7.10;;;2.80;;
69207;SDS011;56321;47.662;8.878;2022-10-04T02:36:35;9.38;;;3.00;;
69207;SDS011;56321;47.662;8.878;2022-10-04T02:39:07;8.23;;;2.80;;
69207;SDS011;56321;47.662;8.878;2022-10-04T02:41:45;7.93;;;3.00;;
69207;SDS011;56321;47.662;8.878;2022-10-04T02:49:43;8.65;;;3.08;;
69207;SDS011;56321;47.662;8.878;2022-10-04T02:52:10;10.30;;;2.90;;
69207;SDS011;56321;47.662;8.878;2022-10-04T02:57:27;7.88;;;2.53;;
69207;SDS011;56321;47.662;8.878;2022-10-04T03:00:06;7.47;;;2.70;;
69207;SDS011;56321;47.662;8.878;2022-10-04T03:02:37;7.47;;;2.63;;
69207;SDS011;56321;47.662;8.878;2022-10-04T03:05:04;9.63;;;2.75;;
69207;SDS011;56321;47.662;8.878;2022-10-04T03:07:33;7.47;;;2.80;;
69207;SDS011;56321;47.662;8.878;2022-10-04T03:10:00;8.05;;;2.90;;
69207;SDS011;56321;47.662;8.878;2022-10-04T03:12:26;8.48;;;2.90;;
69207;SDS011;56321;47.662;8.878;2022-10-04T03:14:52;9.63;;;2.53;;
69207;SDS011;56321;47.662;8.878;2022-10-04T03:17:18;7.72;;;2.97;;
69207;SDS011;56321;47.662;8.878;2022-10-04T03:19:46;9.45;;;2.80;;
69207;SDS011;56321;47.662;8.878;2022-10-04T03:22:13;7.68;;;2.55;;
69207;SDS011;56321;47.662;8.878;2022-10-04T03:27:16;8.48;;;3.08;;
69207;SDS011;56321;47.662;8.878;2022-10-04T03:29:45;7.28;;;2.60;;
69207;SDS011;56321;47.662;8.878;2022-10-04T03:32:12;7.60;;;2.72;;
69207;SDS011;56321;47.662;8.878;2022-10-04T03:34:40;8.90;;;2.60;;
69207;SDS011;56321;47.662;8.878;2022-10-04T03:37:14;8.65;;;2.80;;
69207;SDS011;56321;47.662;8.878;2022-10-04T03:40:02;10.38;;;2.83;;
69207;SDS011;56321;47.662;8.878;2022-10-04T03:42:29;10.40;;;3.17;;
69207;SDS011;56321;47.662;8.878;2022-10-04T03:45:02;8.98;;;3.22;;
69207;SDS011;56321;47.662;8.878;2022-10-04T03:47:40;9.10;;;3.03;;
69207;SDS011;56321;47.662;8.878;2022-10-04T03:50:14;9.02;;;3.00;;
69207;SDS011;56321;47.662;8.878;2022-10-04T03:52:47;9.65;;;3.38;;
69207;SDS011;56321;47.662;8.878;2022-10-04T03:55:18;8.82;;;3.10;;
69207;SDS011;56321;47.662;8.878;2022-10-04T03:57:43;10.25;;;3.60;;
69207;SDS011;56321;47.662;8.878;2022-10-04T04:00:13;8.97;;;3.17;;
69207;SDS011;56321;47.662;8.878;2022-10-04T04:02:42;9.90;;;3.30;;
69207;SDS011;56321;47.662;8.878;2022-10-04T04:10:28;7.95;;;2.70;;
69207;SDS011;56321;47.662;8.878;2022-10-04T04:13:07;7.63;;;2.90;;
69207;SDS011;56321;47.662;8.878;2022-10-04T04:15:35;7.65;;;2.50;;
69207;SDS011;56321;47.662;8.878;2022-10-04T04:18:05;7.95;;;2.90;;
69207;SDS011;56321;47.662;8.878;2022-10-04T04:20:37;7.85;;;3.13;;
69207;SDS011;56321;47.662;8.878;2022-10-04T04:25:40;10.60;;;4.10;;
69207;SDS011;56321;47.662;8.878;2022-10-04T04:28:31;10.05;;;4.20;;
69207;SDS011;56321;47.662;8.878;2022-10-04T04:31:44;11.18;;;4.20;;
69207;SDS011;56321;47.662;8.878;2022-10-04T04:33:58;15.73;;;4.53;;
69207;SDS011;56321;47.662;8.878;2022-10-04T04:36:25;11.85;;;4.60;;
69207;SDS011;56321;47.662;8.878;2022-10-04T04:39:11;13.00;;;5.13;;
69207;SDS011;56321;47.662;8.878;2022-10-04T04:41:55;13.18;;;4.75;;
69207;SDS011;56321;47.662;8.878;2022-10-04T04:44:21;10.83;;;4.50;;
69207;SDS011;56321;47.662;8.878;2022-10-04T04:46:47;11.48;;;4.72;;
69207;SDS011;56321;47.662;8.878;2022-10-04T04:49:14;10.35;;;4.20;;
69207;SDS011;56321;47.662;8.878;2022-10-04T04:51:41;12.10;;;4.87;;
69207;SDS011;56321;47.662;8.878;2022-10-04T04:54:13;10.85;;;4.60;;
69207;SDS011;56321;47.662;8.878;2022-10-04T04:56:41;11.52;;;5.03;;
69207;SDS011;56321;47.662;8.878;2022-10-04T04:59:08;9.73;;;4.03;;
69207;SDS011;56321;47.662;8.878;2022-10-04T05:01:42;13.10;;;4.05;;
69207;SDS011;56321;47.662;8.878;2022-10-04T05:07:01;10.57;;;3.97;;
69207;SDS011;56321;47.662;8.878;2022-10-04T05:09:32;9.95;;;3.78;;
69207;SDS011;56321;47.662;8.878;2022-10-04T05:12:09;8.43;;;3.30;;
69207;SDS011;56321;47.662;8.878;2022-10-04T05:14:44;9.15;;;3.70;;
69207;SDS011;56321;47.662;8.878;2022-10-04T05:17:31;8.63;;;3.60;;
69207;SDS011;56321;47.662;8.878;2022-10-04T05:19:59;9.07;;;3.65;;
69207;SDS011;56321;47.662;8.878;2022-10-04T05:22:26;9.98;;;3.75;;
69207;SDS011;56321;47.662;8.878;2022-10-04T05:24:57;8.98;;;3.60;;
69207;SDS011;56321;47.662;8.878;2022-10-04T05:27:29;9.05;;;3.55;;
69207;SDS011;56321;47.662;8.878;2022-10-04T05:30:01;8.70;;;3.70;;
69207;SDS011;56321;47.662;8.878;2022-10-04T05:35:37;8.05;;;3.35;;
69207;SDS011;56321;47.662;8.878;2022-10-04T05:38:25;8.85;;;3.33;;
69207;SDS011;56321;47.662;8.878;2022-10-04T05:41:00;10.07;;;3.45;;
69207;SDS011;56321;47.662;8.878;2022-10-04T05:43:35;10.13;;;4.87;;
69207;SDS011;56321;47.662;8.878;2022-10-04T05:46:20;8.27;;;4.25;;
69207;SDS011;56321;47.662;8.878;2022-10-04T05:48:57;10.73;;;4.07;;
69207;SDS011;56321;47.662;8.878;2022-10-04T05:53:53;8.55;;;3.92;;
69207;SDS011;56321;47.662;8.878;2022-10-04T05:56:26;9.43;;;3.90;;
69207;SDS011;56321;47.662;8.878;2022-10-04T05:59:14;9.57;;;3.67;;
69207;SDS011;56321;47.662;8.878;2022-10-04T06:10:18;8.93;;;4.00;;
69207;SDS011;56321;47.662;8.878;2022-10-04T06:15:51;10.20;;;4.35;;
69207;SDS011;56321;47.662;8.878;2022-10-04T06:23:57;8.13;;;3.63;;
69207;SDS011;56321;47.662;8.878;2022-10-04T06:26:47;10.50;;;4.03;;
69207;SDS011;56321;47.662;8.878;2022-10-04T06:29:19;9.48;;;3.90;;
69207;SDS011;56321;47.662;8.878;2022-10-04T06:32:10;9.55;;;4.28;;
69207;SDS011;56321;47.662;8.878;2022-10-04T06:34:58;10.38;;;4.20;;
69207;SDS011;56321;47.662;8.878;2022-10-04T06:43:11;10.27;;;4.22;;
69207;SDS011;56321;47.662;8.878;2022-10-04T06:46:05;8.90;;;3.88;;
69207;SDS011;56321;47.662;8.878;2022-10-04T06:59:40;9.55;;;4.30;;
69207;SDS011;56321;47.662;8.878;2022-10-04T07:02:20;10.13;;;4.43;;
69207;SDS011;56321;47.662;8.878;2022-10-04T07:12:33;8.60;;;3.75;;
69207;SDS011;56321;47.662;8.878;2022-10-04T07:15:03;8.30;;;3.88;;
69207;SDS011;56321;47.662;8.878;2022-10-04T07:17:37;8.60;;;3.67;;
69207;SDS011;56321;47.662;8.878;2022-10-04T07:20:13;8.98;;;4.10;;
69207;SDS011;56321;47.662;8.878;2022-10-04T07:22:59;11.77;;;4.60;;
69207;SDS011;56321;47.662;8.878;2022-10-04T07:25:30;12.32;;;4.60;;
69207;SDS011;56321;47.662;8.878;2022-10-04T07:28:03;10.63;;;4.43;;
69207;SDS011;56321;47.662;8.878;2022-10-04T07:30:59;12.67;;;4.30;;
69207;SDS011;56321;47.662;8.878;2022-10-04T07:33:27;11.45;;;5.20;;
69207;SDS011;56321;47.662;8.878;2022-10-04T07:36:06;11.63;;;5.07;;
69207;SDS011;56321;47.662;8.878;2022-10-04T07:38:41;12.27;;;5.00;;
69207;SDS011;56321;47.662;8.878;2022-10-04T07:43:46;16.20;;;5.90;;
69207;SDS011;56321;47.662;8.878;2022-10-04T07:46:21;15.80;;;7.03;;
69207;SDS011;56321;47.662;8.878;2022-10-04T07:49:01;16.37;;;6.50;;
69207;SDS011;56321;47.662;8.878;2022-10-04T07:51:37;16.20;;;6.50;;
69207;SDS011;56321;47.662;8.878;2022-10-04T07:54:26;15.65;;;7.47;;
69207;SDS011;56321;47.662;8.878;2022-10-04T07:57:13;17.52;;;7.97;;
69207;SDS011;56321;47.662;8.878;2022-10-04T08:05:22;13.73;;;6.88;;
69207;SDS011;56321;47.662;8.878;2022-10-04T08:16:33;13.68;;;5.82;;
69207;SDS011;56321;47.662;8.878;2022-10-04T08:25:17;14.55;;;6.10;;
69207;SDS011;56321;47.662;8.878;2022-10-04T08:33:56;15.35;;;7.13;;
69207;SDS011;56321;47.662;8.878;2022-10-04T08:39:00;16.38;;;7.00;;
69207;SDS011;56321;47.662;8.878;2022-10-04T08:44:14;16.83;;;6.43;;
69207;SDS011;56321;47.662;8.878;2022-10-04T08:52:46;14.60;;;6.57;;
69207;SDS011;56321;47.662;8.878;2022-10-04T08:55:49;12.35;;;6.15;;
69207;SDS011;56321;47.662;8.878;2022-10-04T08:58:42;11.80;;;5.67;;
69207;SDS011;56321;47.662;8.878;2022-10-04T09:04:26;13.65;;;7.07;;
69207;SDS011;56321;47.662;8.878;2022-10-04T09:13:11;11.70;;;5.93;;
69207;SDS011;56321;47.662;8.878;2022-10-04T09:17:00;10.77;;;5.47;;
69207;SDS011;56321;47.662;8.878;2022-10-04T09:25:16;12.55;;;6.40;;
69207;SDS011;56321;47.662;8.878;2022-10-04T09:42:06;14.07;;;6.20;;
69207;SDS011;56321;47.662;8.878;2022-10-04T09:53:22;11.00;;;5.45;;
69207;SDS011;56321;47.662;8.878;2022-10-04T09:55:59;10.97;;;5.03;;
69207;SDS011;56321;47.662;8.878;2022-10-04T10:01:26;11.38;;;5.80;;
69207;SDS011;56321;47.662;8.878;2022-10-04T10:04:05;12.10;;;6.10;;
69207;SDS011;56321;47.662;8.878;2022-10-04T10:07:02;13.23;;;5.57;;
69207;SDS011;56321;47.662;8.878;2022-10-04T10:10:00;11.80;;;5.20;;
69207;SDS011;56321;47.662;8.878;2022-10-04T10:16:17;11.57;;;5.40;;
69207;SDS011;56321;47.662;8.878;2022-10-04T10:33:09;12.82;;;6.30;;
69207;SDS011;56321;47.662;8.878;2022-10-04T10:36:14;13.13;;;6.40;;
69207;SDS011;56321;47.662;8.878;2022-10-04T10:39:18;13.50;;;7.10;;
69207;SDS011;56321;47.662;8.878;2022-10-04T10:44:55;13.68;;;6.88;;
69207;SDS011;56321;47.662;8.878;2022-10-04T11:30:38;12.98;;;7.55;;
69207;SDS011;56321;47.662;8.878;2022-10-04T11:33:39;11.80;;;5.95;;
69207;SDS011;56321;47.662;8.878;2022-10-04T11:50:15;9.43;;;5.10;;
69207;SDS011;56321;47.662;8.878;2022-10-04T11:56:03;9.65;;;5.03;;
69207;SDS011;56321;47.662;8.878;2022-10-04T11:58:51;9.80;;;5.47;;
69207;SDS011;56321;47.662;8.878;2022-10-04T12:04:51;10.10;;;5.60;;
69207;SDS011;56321;47.662;8.878;2022-10-04T12:15:36;8.85;;;5.05;;
69207;SDS011;56321;47.662;8.878;2022-10-04T12:35:28;9.55;;;5.68;;
69207;SDS011;56321;47.662;8.878;2022-10-04T12:40:49;8.85;;;4.65;;
69207;SDS011;56321;47.662;8.878;2022-10-04T12:46:00;8.87;;;4.90;;
69207;SDS011;56321;47.662;8.878;2022-10-04T12:51:19;8.43;;;4.55;;
69207;SDS011;56321;47.662;8.878;2022-10-04T12:54:11;8.82;;;4.95;;
69207;SDS011;56321;47.662;8.878;2022-10-04T12:57:04;9.18;;;5.40;;
69207;SDS011;56321;47.662;8.878;2022-10-04T13:02:49;8.10;;;4.40;;
69207;SDS011;56321;47.662;8.878;2022-10-04T13:21:38;9.10;;;4.97;;
69207;SDS011;56321;47.662;8.878;2022-10-04T13:24:25;8.80;;;4.30;;
69207;SDS011;56321;47.662;8.878;2022-10-04T13:27:23;9.93;;;4.80;;
69207;SDS011;56321;47.662;8.878;2022-10-04T13:35:33;8.55;;;4.40;;
69207;SDS011;56321;47.662;8.878;2022-10-04T13:38:28;8.88;;;4.57;;
69207;SDS011;56321;47.662;8.878;2022-10-04T13:41:04;8.40;;;4.10;;
69207;SDS011;56321;47.662;8.878;2022-10-04T13:44:04;9.13;;;4.32;;
69207;SDS011;56321;47.662;8.878;2022-10-04T13:46:52;8.27;;;4.47;;
69207;SDS011;56321;47.662;8.878;2022-10-04T13:49:39;9.65;;;4.82;;
69207;SDS011;56321;47.662;8.878;2022-10-04T13:53:11;8.88;;;4.50;;
69207;SDS011;56321;47.662;8.878;2022-10-04T14:01:35;9.10;;;4.77;;
69207;SDS011;56321;47.662;8.878;2022-10-04T14:04:24;8.70;;;4.40;;
69207;SDS011;56321;47.662;8.878;2022-10-04T14:12:14;8.68;;;4.55;;
69207;SDS011;56321;47.662;8.878;2022-10-04T14:26:57;9.45;;;4.78;;
69207;SDS011;56321;47.662;8.878;2022-10-04T14:30:55;9.90;;;4.80;;
69207;SDS011;56321;47.662;8.878;2022-10-04T14:35:34;8.70;;;4.50;;
69207;SDS011;56321;47.662;8.878;2022-10-04T14:40:43;9.27;;;4.63;;
69207;SDS011;56321;47.662;8.878;2022-10-04T15:06:23;9.57;;;5.15;;
69207;SDS011;56321;47.662;8.878;2022-10-04T15:20:19;10.85;;;5.32;;
69207;SDS011;56321;47.662;8.878;2022-10-04T15:23:36;9.30;;;4.65;;
69207;SDS011;56321;47.662;8.878;2022-10-04T15:30:57;9.50;;;4.90;;
69207;SDS011;56321;47.662;8.878;2022-10-04T15:38:53;9.57;;;4.83;;
69207;SDS011;56321;47.662;8.878;2022-10-04T15:49:24;10.98;;;5.22;;
69207;SDS011;56321;47.662;8.878;2022-10-04T16:21:46;14.87;;;11.73;;
69207;SDS011;56321;47.662;8.878;2022-10-04T16:27:15;11.68;;;7.82;;
69207;SDS011;56321;47.662;8.878;2022-10-04T16:30:17;9.18;;;5.05;;
69207;SDS011;56321;47.662;8.878;2022-10-04T16:37:53;9.67;;;4.30;;
69207;SDS011;56321;47.662;8.878;2022-10-04T16:43:20;9.18;;;4.32;;
69207;SDS011;56321;47.662;8.878;2022-10-04T16:45:44;10.55;;;6.35;;
69207;SDS011;56321;47.662;8.878;2022-10-04T16:51:16;11.63;;;5.80;;
69207;SDS011;56321;47.662;8.878;2022-10-04T16:57:20;11.68;;;6.35;;
69207;SDS011;56321;47.662;8.878;2022-10-04T17:16:10;8.85;;;4.43;;
69207;SDS011;56321;47.662;8.878;2022-10-04T17:18:48;7.55;;;3.53;;
69207;SDS011;56321;47.662;8.878;2022-10-04T17:35:44;9.53;;;5.13;;
69207;SDS011;56321;47.662;8.878;2022-10-04T17:38:12;9.10;;;4.82;;
69207;SDS011;56321;47.662;8.878;2022-10-04T17:40:51;9.80;;;5.40;;
69207;SDS011;56321;47.662;8.878;2022-10-04T17:44:18;8.98;;;4.82;;
69207;SDS011;56321;47.662;8.878;2022-10-04T17:49:01;8.87;;;4.77;;
69207;SDS011;56321;47.662;8.878;2022-10-04T17:51:53;9.98;;;4.40;;
69207;SDS011;56321;47.662;8.878;2022-10-04T17:54:47;8.63;;;4.15;;
69207;SDS011;56321;47.662;8.878;2022-10-04T17:57:39;7.47;;;4.10;;
69207;SDS011;56321;47.662;8.878;2022-10-04T18:00:20;7.85;;;4.07;;
69207;SDS011;56321;47.662;8.878;2022-10-04T18:08:11;9.30;;;4.40;;
69207;SDS011;56321;47.662;8.878;2022-10-04T18:10:46;7.68;;;3.83;;
69207;SDS011;56321;47.662;8.878;2022-10-04T18:13:37;9.60;;;4.28;;
69207;SDS011;56321;47.662;8.878;2022-10-04T18:18:52;9.32;;;4.53;;
69207;SDS011;56321;47.662;8.878;2022-10-04T18:21:19;9.13;;;4.68;;
69207;SDS011;56321;47.662;8.878;2022-10-04T18:23:57;9.57;;;4.73;;
69207;SDS011;56321;47.662;8.878;2022-10-04T18:27:00;8.52;;;4.30;;
69207;SDS011;56321;47.662;8.878;2022-10-04T18:30:11;9.65;;;4.75;;
69207;SDS011;56321;47.662;8.878;2022-10-04T18:34:57;8.57;;;4.50;;
69207;SDS011;56321;47.662;8.878;2022-10-04T18:37:32;9.63;;;4.72;;
69207;SDS011;56321;47.662;8.878;2022-10-04T18:40:16;8.33;;;4.30;;
69207;SDS011;56321;47.662;8.878;2022-10-04T18:43:28;8.82;;;4.28;;
69207;SDS011;56321;47.662;8.878;2022-10-04T18:46:00;9.70;;;4.72;;
69207;SDS011;56321;47.662;8.878;2022-10-04T18:48:36;9.52;;;4.50;;
69207;SDS011;56321;47.662;8.878;2022-10-04T18:56:55;9.23;;;4.70;;
69207;SDS011;56321;47.662;8.878;2022-10-04T19:02:21;11.77;;;4.63;;
69207;SDS011;56321;47.662;8.878;2022-10-04T19:07:48;9.60;;;5.00;;
69207;SDS011;56321;47.662;8.878;2022-10-04T19:10:31;11.13;;;5.00;;
69207;SDS011;56321;47.662;8.878;2022-10-04T19:18:36;9.68;;;5.32;;
69207;SDS011;56321;47.662;8.878;2022-10-04T19:21:07;12.47;;;5.33;;
69207;SDS011;56321;47.662;8.878;2022-10-04T19:24:01;10.52;;;5.57;;
69207;SDS011;56321;47.662;8.878;2022-10-04T19:26:37;9.77;;;4.97;;
69207;SDS011;56321;47.662;8.878;2022-10-04T19:31:59;10.35;;;4.88;;
69207;SDS011;56321;47.662;8.878;2022-10-04T19:34:32;10.13;;;5.17;;
69207;SDS011;56321;47.662;8.878;2022-10-04T19:56:01;10.05;;;4.65;;
69207;SDS011;56321;47.662;8.878;2022-10-04T20:01:09;12.17;;;4.90;;
69207;SDS011;56321;47.662;8.878;2022-10-04T20:03:35;10.27;;;5.15;;
69207;SDS011;56321;47.662;8.878;2022-10-04T20:06:00;10.23;;;4.68;;
69207;SDS011;56321;47.662;8.878;2022-10-04T20:22:24;9.07;;;4.67;;
69207;SDS011;56321;47.662;8.878;2022-10-04T20:27:04;9.93;;;5.07;;
69207;SDS011;56321;47.662;8.878;2022-10-04T20:32:02;9.80;;;5.03;;
69207;SDS011;56321;47.662;8.878;2022-10-04T20:37:05;9.30;;;4.72;;
69207;SDS011;56321;47.662;8.878;2022-10-04T20:42:06;9.35;;;4.78;;
69207;SDS011;56321;47.662;8.878;2022-10-04T20:47:19;10.73;;;5.13;;
69207;SDS011;56321;47.662;8.878;2022-10-04T20:49:45;10.07;;;5.03;;
69207;SDS011;56321;47.662;8.878;2022-10-04T20:52:13;10.47;;;4.97;;
69207;SDS011;56321;47.662;8.878;2022-10-04T20:54:39;10.02;;;4.90;;
69207;SDS011;56321;47.662;8.878;2022-10-04T20:57:16;10.63;;;4.80;;
69207;SDS011;56321;47.662;8.878;2022-10-04T20:59:42;10.77;;;5.00;;
69207;SDS011;56321;47.662;8.878;2022-10-04T21:02:14;10.98;;;4.90;;
69207;SDS011;56321;47.662;8.878;2022-10-04T21:04:40;10.03;;;4.77;;
69207;SDS011;56321;47.662;8.878;2022-10-04T21:07:08;10.38;;;4.90;;
69207;SDS011;56321;47.662;8.878;2022-10-04T21:09:36;10.13;;;4.97;;
69207;SDS011;56321;47.662;8.878;2022-10-04T21:12:03;9.75;;;5.03;;
69207;SDS011;56321;47.662;8.878;2022-10-04T21:14:30;10.43;;;4.78;;
69207;SDS011;56321;47.662;8.878;2022-10-04T21:16:58;10.37;;;5.07;;
69207;SDS011;56321;47.662;8.878;2022-10-04T21:29:55;11.37;;;5.90;;
69207;SDS011;56321;47.662;8.878;2022-10-04T21:32:22;11.52;;;5.15;;
69207;SDS011;56321;47.662;8.878;2022-10-04T21:34:48;11.23;;;5.72;;
69207;SDS011;56321;47.662;8.878;2022-10-04T21:37:14;11.73;;;5.83;;
69207;SDS011;56321;47.662;8.878;2022-10-04T21:39:40;11.32;;;5.30;;
69207;SDS011;56321;47.662;8.878;2022-10-04T21:42:06;11.48;;;5.57;;
69207;SDS011;56321;47.662;8.878;2022-10-04T21:44:31;11.00;;;5.67;;
69207;SDS011;56321;47.662;8.878;2022-10-04T21:46:56;11.23;;;5.63;;
69207;SDS011;56321;47.662;8.878;2022-10-04T21:49:22;11.53;;;5.90;;
69207;SDS011;56321;47.662;8.878;2022-10-04T21:51:47;12.68;;;5.93;;
69207;SDS011;56321;47.662;8.878;2022-10-04T21:54:12;10.57;;;5.40;;
69207;SDS011;56321;47.662;8.878;2022-10-04T21:56:38;12.30;;;5.70;;
69207;SDS011;56321;47.662;8.878;2022-10-04T21:59:03;12.73;;;5.97;;
69207;SDS011;56321;47.662;8.878;2022-10-04T22:01:28;12.77;;;6.33;;
69207;SDS011;56321;47.662;8.878;2022-10-04T22:03:54;19.40;;;6.27;;
69207;SDS011;56321;47.662;8.878;2022-10-04T22:06:19;12.33;;;5.60;;
69207;SDS011;56321;47.662;8.878;2022-10-04T22:08:45;14.18;;;5.95;;
69207;SDS011;56321;47.662;8.878;2022-10-04T22:11:10;24.90;;;6.07;;
69207;SDS011;56321;47.662;8.878;2022-10-04T22:13:36;11.90;;;5.38;;
69207;SDS011;56321;47.662;8.878;2022-10-04T22:16:02;11.07;;;4.67;;
69207;SDS011;56321;47.662;8.878;2022-10-04T22:18:28;10.43;;;4.68;;
69207;SDS011;56321;47.662;8.878;2022-10-04T22:20:54;16.90;;;5.13;;
69207;SDS011;56321;47.662;8.878;2022-10-04T22:23:20;16.07;;;5.07;;
69207;SDS011;56321;47.662;8.878;2022-10-04T22:25:48;17.83;;;5.03;;
69207;SDS011;56321;47.662;8.878;2022-10-04T22:28:21;16.27;;;5.70;;
69207;SDS011;56321;47.662;8.878;2022-10-04T22:30:49;13.75;;;5.10;;
69207;SDS011;56321;47.662;8.878;2022-10-04T22:38:36;11.50;;;5.70;;
69207;SDS011;56321;47.662;8.878;2022-10-04T22:41:04;11.73;;;6.00;;
69207;SDS011;56321;47.662;8.878;2022-10-04T22:43:33;12.65;;;6.68;;
69207;SDS011;56321;47.662;8.878;2022-10-04T22:45:59;11.43;;;6.00;;
69207;SDS011;56321;47.662;8.878;2022-10-04T22:48:24;11.83;;;5.97;;
69207;SDS011;56321;47.662;8.878;2022-10-04T22:50:52;11.82;;;6.22;;
69207;SDS011;56321;47.662;8.878;2022-10-04T22:53:19;13.37;;;6.30;;
69207;SDS011;56321;47.662;8.878;2022-10-04T22:55:46;11.83;;;6.07;;
69207;SDS011;56321;47.662;8.878;2022-10-04T22:58:13;10.82;;;5.40;;
69207;SDS011;56321;47.662;8.878;2022-10-04T23:00:39;12.73;;;6.10;;
69207;SDS011;56321;47.662;8.878;2022-10-04T23:06:10;11.80;;;5.97;;
69207;SDS011;56321;47.662;8.878;2022-10-04T23:08:38;13.97;;;6.40;;
69207;SDS011;56321;47.662;8.878;2022-10-04T23:11:05;11.43;;;5.60;;
69207;SDS011;56321;47.662;8.878;2022-10-04T23:13:30;12.70;;;5.80;;
69207;SDS011;56321;47.662;8.878;2022-10-04T23:15:56;17.33;;;6.80;;
69207;SDS011;56321;47.662;8.878;2022-10-04T23:18:25;19.83;;;6.55;;
69207;SDS011;56321;47.662;8.878;2022-10-04T23:20:56;19.13;;;6.65;;
69207;SDS011;56321;47.662;8.878;2022-10-04T23:23:23;14.38;;;6.72;;
69207;SDS011;56321;47.662;8.878;2022-10-04T23:25:52;14.43;;;6.60;;
69207;SDS011;56321;47.662;8.878;2022-10-04T23:28:18;14.18;;;6.95;;
69207;SDS011;56321;47.662;8.878;2022-10-04T23:30:44;16.88;;;6.82;;
69207;SDS011;56321;47.662;8.878;2022-10-04T23:33:20;17.15;;;7.32;;
69207;SDS011;56321;47.662;8.878;2022-10-04T23:35:47;17.90;;;7.45;;
69207;SDS011;56321;47.662;8.878;2022-10-04T23:38:15;20.60;;;8.23;;
69207;SDS011;56321;47.662;8.878;2022-10-04T23:40:42;23.25;;;7.80;;
69207;SDS011;56321;47.662;8.878;2022-10-04T23:43:26;15.63;;;6.82;;
69207;SDS011;56321;47.662;8.878;2022-10-04T23:45:55;13.73;;;6.13;;
69207;SDS011;56321;47.662;8.878;2022-10-04T23:48:23;25.50;;;7.15;;
69207;SDS011;56321;47.662;8.878;2022-10-04T23:50:50;17.63;;;6.20;;
69207;SDS011;56321;47.662;8.878;2022-10-04T23:53:27;20.20;;;6.60;;
69207;SDS011;56321;47.662;8.878;2022-10-04T23:55:56;30.15;;;6.35;;
69207;SDS011;56321;47.662;8.878;2022-10-04T23:58:27;24.27;;;5.80;;
